Terminal Aerodrome Forecast
Issued by NWS Twin Cities, MN

Home | Current Version | Previous Version | Text Only | Print | Product List | Glossary Off
Versions: 1 2 3 4 5 6 7 8 9 10 11 12 13 14 15 16 17 18 19 20 21

000
FTUS43 KMPX 281804 CCA
TAFSTC
TAF COR
KSTC 281804Z 2818/2918 01012KT P6SM BKN025
     FM281900 01010KT P6SM BKN035
     FM290100 03007KT P6SM SCT050
     FM290600 VRB03KT P6SM SKC
     FM291500 04005KT P6SM SKC=

USA.gov is the U.S. government's official web portal to all federal, state and local government web resources and services.